createdAt,value
2022-10-30T00:02:34.277Z,247.40
2022-10-30T00:07:34.455Z,245.80
2022-10-30T00:12:34.288Z,245.80
2022-10-30T00:17:34.420Z,256.40
2022-10-30T00:22:34.164Z,256.40
2022-10-30T00:27:34.194Z,884.00
2022-10-30T00:32:34.249Z,884.00
2022-10-30T00:42:34.765Z,607.60
2022-10-30T00:47:34.162Z,812.50
2022-10-30T00:52:34.481Z,812.50
2022-10-30T00:57:34.220Z,252.60
2022-10-30T01:02:34.548Z,252.60
2022-10-30T01:07:34.256Z,257.50
2022-10-30T01:12:34.210Z,257.50
2022-10-30T01:22:34.361Z,565.30
2022-10-30T01:27:34.551Z,253.40
2022-10-30T01:32:34.171Z,253.40
2022-10-30T01:37:34.194Z,253.70
2022-10-30T01:42:34.372Z,253.70
2022-10-30T01:47:34.438Z,248.20
2022-10-30T01:57:34.701Z,595.90
2022-10-30T02:02:34.412Z,595.90
2022-10-30T02:07:34.408Z,813.50
2022-10-30T02:12:34.545Z,813.50
2022-10-30T02:17:34.189Z,889.30
2022-10-30T02:22:34.563Z,889.30
2022-10-30T02:27:34.243Z,863.10
2022-10-30T02:32:34.227Z,863.10
2022-10-30T02:37:34.233Z,719.50
2022-10-30T02:42:34.235Z,719.50
2022-10-30T02:47:34.245Z,682.00
2022-10-30T02:52:34.428Z,682.00
2022-10-30T03:02:34.396Z,248.50
2022-10-30T03:07:34.515Z,292.40
2022-10-30T03:17:34.825Z,229.90
2022-10-30T03:22:34.361Z,229.90
2022-10-30T03:27:34.274Z,213.30
2022-10-30T03:32:34.272Z,213.30
2022-10-30T03:37:34.271Z,426.50
2022-10-30T03:47:34.416Z,736.30
2022-10-30T03:52:34.247Z,736.30
2022-10-30T03:57:34.278Z,931.10
2022-10-30T04:02:34.511Z,931.10
2022-10-30T04:07:34.363Z,937.40
2022-10-30T04:12:34.505Z,937.40
2022-10-30T04:17:34.330Z,944.90
2022-10-30T04:22:34.282Z,944.90
2022-10-30T04:27:34.682Z,975.70
2022-10-30T04:32:34.401Z,975.70
2022-10-30T04:37:34.580Z,933.30
2022-10-30T04:42:34.465Z,933.30
2022-10-30T04:47:34.328Z,932.30
2022-10-30T04:52:34.380Z,932.30
2022-10-30T04:57:34.531Z,799.70
2022-10-30T05:02:34.729Z,799.70
2022-10-30T05:07:34.468Z,878.50
2022-10-30T05:12:34.636Z,878.50
2022-10-30T05:17:34.297Z,950.40
2022-10-30T05:22:34.599Z,950.40
2022-10-30T05:27:34.388Z,952.20
2022-10-30T05:32:34.474Z,952.20
2022-10-30T05:37:34.378Z,999.90
2022-10-30T05:42:34.337Z,999.90
2022-10-30T05:47:34.299Z,985.40
2022-10-30T05:52:34.834Z,985.40
2022-10-30T05:57:34.551Z,984.30
2022-10-30T06:02:34.519Z,984.30
2022-10-30T06:07:34.624Z,981.20
2022-10-30T06:12:34.323Z,981.20
2022-10-30T06:17:38.526Z,986.50
2022-10-30T06:22:34.379Z,986.50
2022-10-30T06:27:34.333Z,987.20
2022-10-30T06:37:34.550Z,992.30
2022-10-30T06:42:34.336Z,992.30
2022-10-30T06:52:34.369Z,984.30
2022-10-30T06:57:34.465Z,978.90
2022-10-30T07:07:34.706Z,978.00
2022-10-30T07:12:34.626Z,978.00
2022-10-30T07:17:34.406Z,982.40
2022-10-30T07:22:34.552Z,982.40
2022-10-30T07:27:34.689Z,982.20
2022-10-30T07:32:34.539Z,982.20
2022-10-30T07:37:34.371Z,979.60
2022-10-30T07:42:34.563Z,979.60
2022-10-30T07:47:34.604Z,984.60
2022-10-30T07:52:34.697Z,984.60
2022-10-30T07:57:34.558Z,983.30
2022-10-30T08:02:34.541Z,983.30
2022-10-30T08:07:34.388Z,988.20
2022-10-30T08:12:34.722Z,988.20
2022-10-30T08:17:34.448Z,847.40
2022-10-30T08:22:34.647Z,847.40
2022-10-30T08:27:34.550Z,723.50
2022-10-30T08:32:34.408Z,723.50
2022-10-30T08:37:34.477Z,686.20
2022-10-30T08:42:34.634Z,686.20
2022-10-30T08:47:34.748Z,684.70
2022-10-30T08:52:34.549Z,684.70
2022-10-30T08:57:34.753Z,672.90
2022-10-30T09:02:34.574Z,672.90
2022-10-30T09:07:34.708Z,699.90
2022-10-30T09:12:34.512Z,699.90
2022-10-30T09:17:34.709Z,800.40
2022-10-30T09:27:34.562Z,751.80
2022-10-30T09:32:34.470Z,751.80
2022-10-30T09:37:34.624Z,721.40
2022-10-30T09:42:34.443Z,721.40
2022-10-30T09:47:34.423Z,775.90
2022-10-30T09:52:34.719Z,775.90
2022-10-30T09:57:34.449Z,781.00
2022-10-30T10:02:34.931Z,781.00
2022-10-30T10:07:34.457Z,782.90
2022-10-30T10:12:34.519Z,782.90
2022-10-30T10:17:34.438Z,873.20
2022-10-30T10:22:34.458Z,873.20
2022-10-30T10:27:34.779Z,804.00
2022-10-30T10:32:34.557Z,804.00
2022-10-30T10:37:34.760Z,820.70
2022-10-30T10:42:34.569Z,820.70
2022-10-30T10:47:34.706Z,774.10
2022-10-30T10:52:34.484Z,774.10
2022-10-30T10:57:34.713Z,800.00
2022-10-30T11:02:34.611Z,800.00
2022-10-30T11:07:34.801Z,880.40
2022-10-30T11:12:36.350Z,880.40
2022-10-30T11:17:34.547Z,867.00
2022-10-30T11:22:34.467Z,867.00
2022-10-30T11:27:34.552Z,865.70
2022-10-30T11:32:34.942Z,865.70
2022-10-30T11:37:34.471Z,868.80
2022-10-30T11:42:34.722Z,868.80
2022-10-30T11:52:34.648Z,932.10
2022-10-30T11:57:34.807Z,907.00
2022-10-30T12:02:34.579Z,907.00
2022-10-30T12:07:34.776Z,911.20
2022-10-30T12:12:34.563Z,911.20
2022-10-30T12:17:34.756Z,866.60
2022-10-30T12:22:34.580Z,866.60
2022-10-30T12:27:34.523Z,935.40
2022-10-30T12:32:39.340Z,935.40
2022-10-30T12:37:34.539Z,911.40
2022-10-30T12:42:34.521Z,911.40
2022-10-30T12:47:34.727Z,911.50
2022-10-30T12:52:34.508Z,911.50
2022-10-30T12:57:34.581Z,905.20
2022-10-30T13:02:34.843Z,905.20
2022-10-30T13:07:34.574Z,932.90
2022-10-30T13:12:34.625Z,932.90
2022-10-30T13:17:34.562Z,883.10
2022-10-30T13:22:34.766Z,883.10
2022-10-30T13:27:34.846Z,815.20
2022-10-30T13:32:34.511Z,815.20
2022-10-30T13:37:35.090Z,829.30
2022-10-30T13:42:34.721Z,829.30
2022-10-30T13:47:35.045Z,970.60
2022-10-30T13:52:34.626Z,970.60
2022-10-30T13:57:34.557Z,797.40
2022-10-30T14:02:34.663Z,797.40
2022-10-30T14:07:34.859Z,687.80
2022-10-30T14:12:34.880Z,687.80
2022-10-30T14:17:34.658Z,673.80
2022-10-30T14:22:34.550Z,673.80
2022-10-30T14:27:34.673Z,817.00
2022-10-30T14:32:34.563Z,817.00
2022-10-30T14:37:34.586Z,720.40
2022-10-30T14:42:34.542Z,720.40
2022-10-30T14:47:34.637Z,771.70
2022-10-30T14:52:34.755Z,771.70
2022-10-30T14:57:34.589Z,771.80
2022-10-30T15:02:34.753Z,771.80
2022-10-30T15:07:34.595Z,763.30
2022-10-30T15:12:34.721Z,763.30
2022-10-30T15:17:34.658Z,769.80
2022-10-30T15:22:34.686Z,769.80
2022-10-30T15:27:34.808Z,743.20
2022-10-30T15:32:34.680Z,743.20
2022-10-30T15:37:34.778Z,691.70
2022-10-30T15:42:35.086Z,691.70
2022-10-30T15:47:34.745Z,802.50
2022-10-30T15:52:34.884Z,802.50
2022-10-30T15:58:13.314Z,796.30
2022-10-30T16:02:35.006Z,796.30
2022-10-30T16:07:34.771Z,747.00
2022-10-30T16:12:34.797Z,747.00
2022-10-30T16:17:34.610Z,734.80
2022-10-30T16:22:34.613Z,734.80
2022-10-30T16:27:34.939Z,709.80
2022-10-30T16:32:34.915Z,709.80
2022-10-30T16:37:34.913Z,746.30
2022-10-30T16:42:34.625Z,746.30
2022-10-30T16:47:34.871Z,752.70
2022-10-30T16:52:34.858Z,752.70
2022-10-30T16:57:36.087Z,780.20
2022-10-30T17:02:34.735Z,780.20
2022-10-30T17:07:34.661Z,730.90
2022-10-30T17:12:34.982Z,730.90
2022-10-30T17:17:34.847Z,751.30
2022-10-30T17:22:35.023Z,751.30
2022-10-30T17:27:34.630Z,717.00
2022-10-30T17:32:34.961Z,717.00
2022-10-30T17:37:34.658Z,735.50
2022-10-30T17:42:34.909Z,735.50
2022-10-30T17:47:34.662Z,760.70
2022-10-30T17:57:36.021Z,776.30
2022-10-30T18:02:35.014Z,776.30
2022-10-30T18:07:34.964Z,822.70
2022-10-30T18:12:34.769Z,822.70
2022-10-30T18:17:34.909Z,810.00
2022-10-30T18:22:34.869Z,810.00
2022-10-30T18:27:35.007Z,772.80
2022-10-30T18:32:34.920Z,772.80
2022-10-30T18:37:34.942Z,755.00
2022-10-30T18:42:34.991Z,755.00
2022-10-30T18:47:35.018Z,864.10
2022-10-30T18:52:34.904Z,864.10
2022-10-30T18:57:35.044Z,882.70
2022-10-30T19:02:35.097Z,882.70
2022-10-30T19:07:34.905Z,843.80
2022-10-30T19:12:38.468Z,843.80
2022-10-30T19:27:34.955Z,796.10
2022-10-30T19:32:34.936Z,796.10
2022-10-30T19:37:35.026Z,796.00
2022-10-30T19:42:35.295Z,796.00
2022-10-30T19:47:35.334Z,808.90
2022-10-30T19:52:35.033Z,808.90
2022-10-30T19:57:34.940Z,820.60
2022-10-30T20:02:35.092Z,820.60
2022-10-30T20:07:34.725Z,843.20
2022-10-30T20:12:35.057Z,843.20
2022-10-30T20:17:34.740Z,828.20
2022-10-30T20:22:36.251Z,828.20
2022-10-30T20:27:35.063Z,827.50
2022-10-30T20:32:34.944Z,827.50
2022-10-30T20:37:34.874Z,826.90
2022-10-30T20:42:37.380Z,826.90
2022-10-30T20:52:34.999Z,848.60
2022-10-30T20:57:34.875Z,845.50
2022-10-30T21:02:34.946Z,845.50
2022-10-30T21:07:34.727Z,840.40
2022-10-30T21:12:35.091Z,840.40
2022-10-30T21:17:34.751Z,841.20
2022-10-30T21:22:34.945Z,841.20
2022-10-30T21:27:34.870Z,829.00
2022-10-30T21:32:34.822Z,829.00
2022-10-30T21:37:34.928Z,817.20
2022-10-30T21:42:34.762Z,817.20
2022-10-30T21:47:34.882Z,889.10
2022-10-30T21:52:34.811Z,889.10
2022-10-30T21:57:34.859Z,887.10
2022-10-30T22:02:34.756Z,887.10
2022-10-30T22:07:34.851Z,888.10
2022-10-30T22:12:34.747Z,888.10
2022-10-30T22:22:34.794Z,969.20
2022-10-30T22:27:35.089Z,964.70
2022-10-30T22:32:34.767Z,964.70
2022-10-30T22:37:35.058Z,950.60
2022-10-30T22:42:34.789Z,950.60
2022-10-30T22:47:35.006Z,921.80
2022-10-30T22:52:34.839Z,921.80
2022-10-30T22:57:35.004Z,956.70
2022-10-30T23:02:34.808Z,956.70
2022-10-30T23:07:34.991Z,981.60
2022-10-30T23:12:35.161Z,981.60
2022-10-30T23:17:34.805Z,985.70
2022-10-30T23:22:35.064Z,985.70
2022-10-30T23:27:34.816Z,962.90
2022-10-30T23:32:34.846Z,962.90
2022-10-30T23:37:34.836Z,986.80
2022-10-30T23:42:34.818Z,986.80
2022-10-30T23:47:34.834Z,972.50
2022-10-30T23:52:34.993Z,972.50
2022-10-30T23:57:35.109Z,973.00
